createdAt,value
2023-02-02T00:01:25.408Z,75.91
2023-02-02T00:03:55.849Z,75.95
2023-02-02T00:06:25.095Z,75.53
2023-02-02T00:08:53.227Z,76.18
2023-02-02T00:11:20.853Z,77.21
2023-02-02T00:13:48.496Z,77.74
2023-02-02T00:16:43.194Z,77.22
2023-02-02T00:19:14.929Z,77.38
2023-02-02T00:21:43.241Z,77.70
2023-02-02T00:24:12.836Z,77.69
2023-02-02T00:26:41.862Z,77.25
2023-02-02T00:29:15.224Z,77.75
2023-02-02T00:31:42.997Z,77.43
2023-02-02T00:34:12.903Z,76.82
2023-02-02T00:36:40.710Z,76.68
2023-02-02T00:39:08.991Z,76.83
2023-02-02T00:41:36.621Z,76.80
2023-02-02T00:44:22.054Z,76.17
2023-02-02T00:46:49.677Z,76.44
2023-02-02T00:49:18.702Z,76.37
2023-02-02T00:51:46.336Z,76.08
2023-02-02T00:54:14.250Z,76.33
2023-02-02T00:56:41.949Z,76.07
2023-02-02T00:59:09.676Z,76.16
2023-02-02T01:01:37.639Z,75.75
2023-02-02T01:04:05.389Z,76.18
2023-02-02T01:06:34.352Z,76.27
2023-02-02T01:09:02.065Z,76.31
2023-02-02T01:11:31.032Z,76.31
2023-02-02T01:13:59.064Z,76.54
2023-02-02T01:16:26.885Z,76.38
2023-02-02T01:19:19.322Z,76.69
2023-02-02T01:21:48.431Z,76.32
2023-02-02T01:24:16.056Z,76.72
2023-02-02T01:26:43.819Z,76.64
2023-02-02T01:29:12.104Z,76.70
2023-02-02T01:34:25.069Z,76.94
2023-02-02T01:36:54.002Z,76.70
2023-02-02T01:39:21.565Z,76.86
2023-02-02T01:41:49.611Z,76.92
2023-02-02T01:45:15.582Z,76.96
2023-02-02T01:47:46.957Z,76.83
2023-02-02T01:50:16.911Z,76.86
2023-02-02T01:52:49.830Z,77.33
2023-02-02T01:55:21.241Z,76.67
2023-02-02T01:57:55.653Z,77.13
2023-02-02T02:00:27.088Z,76.94
2023-02-02T02:02:59.802Z,77.24
2023-02-02T02:05:31.235Z,77.25
2023-02-02T02:08:06.884Z,77.38
2023-02-02T02:10:34.905Z,77.47
2023-02-02T02:13:02.650Z,77.33
2023-02-02T02:15:51.518Z,77.53
2023-02-02T02:18:38.552Z,77.99
2023-02-02T02:22:05.746Z,78.02
2023-02-02T02:25:25.153Z,77.57
2023-02-02T02:28:29.931Z,77.57
2023-02-02T02:31:24.294Z,77.62
2023-02-02T02:34:01.093Z,78.25
2023-02-02T02:36:36.183Z,78.08
2023-02-02T02:39:16.747Z,78.35
2023-02-02T02:41:49.226Z,78.53
2023-02-02T02:44:19.188Z,78.86
2023-02-02T02:46:48.110Z,79.18
2023-02-02T02:49:18.231Z,78.88
2023-02-02T02:51:48.718Z,78.80
2023-02-02T02:54:20.997Z,78.54
2023-02-02T02:56:59.904Z,78.70
2023-02-02T02:59:38.264Z,79.34
2023-02-02T03:02:18.774Z,79.48
2023-02-02T03:04:56.912Z,78.92
2023-02-02T03:07:32.427Z,78.84
2023-02-02T03:10:01.753Z,78.80
2023-02-02T03:12:29.623Z,79.07
2023-02-02T03:14:57.194Z,78.64
2023-02-02T03:17:24.969Z,78.74
2023-02-02T03:19:53.936Z,78.67
2023-02-02T03:22:21.520Z,78.55
2023-02-02T03:24:49.111Z,78.69
2023-02-02T03:27:16.785Z,78.82
2023-02-02T03:29:44.447Z,78.38
2023-02-02T03:32:12.219Z,78.18
2023-02-02T03:34:39.836Z,78.38
2023-02-02T03:37:08.831Z,78.11
2023-02-02T03:39:36.406Z,78.19
2023-02-02T03:42:03.946Z,78.05
2023-02-02T03:44:31.617Z,78.10
2023-02-02T03:46:59.179Z,77.59
2023-02-02T03:49:26.830Z,77.80
2023-02-02T03:51:54.602Z,77.88
2023-02-02T03:54:23.676Z,78.05
2023-02-02T03:56:51.186Z,77.63
2023-02-02T03:59:18.763Z,77.60
2023-02-02T04:01:46.340Z,77.96
2023-02-02T04:04:14.014Z,77.57
2023-02-02T04:06:41.609Z,77.77
2023-02-02T04:09:09.330Z,77.57
2023-02-02T04:11:39.387Z,77.57
2023-02-02T04:14:07.687Z,77.21
2023-02-02T04:16:37.563Z,77.27
2023-02-02T04:19:05.432Z,76.69
2023-02-02T04:21:33.247Z,76.62
2023-02-02T04:24:01.042Z,76.45
2023-02-02T04:26:28.780Z,76.62
2023-02-02T04:28:57.752Z,76.25
2023-02-02T04:31:25.704Z,75.97
2023-02-02T04:33:53.289Z,76.26
2023-02-02T04:36:20.940Z,76.32
2023-02-02T04:38:50.317Z,76.27
2023-02-02T04:41:18.721Z,76.74
2023-02-02T04:43:47.037Z,76.33
2023-02-02T04:46:16.143Z,76.52
2023-02-02T04:48:43.931Z,76.16
2023-02-02T04:51:13.676Z,76.26
2023-02-02T04:53:41.541Z,76.49
2023-02-02T04:56:10.862Z,76.80
2023-02-02T04:58:38.517Z,76.31
2023-02-02T05:01:10.451Z,76.76
2023-02-02T05:03:40.161Z,76.72
2023-02-02T05:06:08.433Z,76.99
2023-02-02T05:08:36.066Z,76.93
2023-02-02T05:11:07.707Z,76.92
2023-02-02T05:13:35.693Z,76.89
2023-02-02T05:16:03.672Z,76.71
2023-02-02T05:18:31.509Z,76.79
2023-02-02T05:21:02.659Z,78.21
2023-02-02T05:23:30.839Z,78.18
2023-02-02T05:25:58.581Z,78.13
2023-02-02T05:28:26.394Z,78.59
2023-02-02T05:30:53.991Z,79.04
2023-02-02T05:33:21.575Z,78.44
2023-02-02T05:35:49.927Z,78.56
2023-02-02T05:38:18.887Z,78.54
2023-02-02T05:40:46.471Z,78.40
2023-02-02T05:43:14.115Z,78.94
2023-02-02T05:45:41.748Z,79.13
2023-02-02T05:48:10.544Z,78.63
2023-02-02T05:50:38.133Z,79.13
2023-02-02T05:53:05.820Z,79.46
2023-02-02T05:55:34.717Z,79.75
2023-02-02T05:58:02.248Z,80.37
2023-02-02T06:00:29.876Z,81.92
2023-02-02T06:02:57.459Z,81.84
2023-02-02T06:05:25.461Z,82.80
2023-02-02T06:07:53.175Z,83.00
2023-02-02T06:10:20.843Z,82.59
2023-02-02T06:12:49.775Z,83.40
2023-02-02T06:15:17.469Z,82.92
2023-02-02T06:17:45.133Z,83.35
2023-02-02T06:20:14.012Z,82.49
2023-02-02T06:22:42.818Z,82.88
2023-02-02T06:25:10.941Z,82.34
2023-02-02T06:27:38.502Z,81.89
2023-02-02T06:30:08.431Z,81.69
2023-02-02T06:32:36.043Z,81.83
2023-02-02T06:35:03.724Z,81.85
2023-02-02T06:37:31.483Z,81.70
2023-02-02T06:39:59.066Z,81.86
2023-02-02T06:42:26.773Z,81.37
2023-02-02T06:44:54.425Z,81.68
2023-02-02T06:47:24.519Z,81.90
2023-02-02T06:49:53.030Z,81.49
2023-02-02T06:52:20.597Z,80.98
2023-02-02T06:54:48.180Z,80.46
2023-02-02T06:57:15.736Z,80.66
2023-02-02T06:59:43.467Z,80.58
2023-02-02T07:02:13.309Z,81.24
2023-02-02T07:04:42.241Z,81.79
2023-02-02T07:07:10.049Z,81.80
2023-02-02T07:09:37.746Z,82.11
2023-02-02T07:12:05.411Z,83.13
2023-02-02T07:14:32.967Z,82.91
2023-02-02T07:17:00.564Z,83.73
2023-02-02T07:19:28.180Z,83.24
2023-02-02T07:21:57.107Z,83.49
2023-02-02T07:24:24.646Z,82.90
2023-02-02T07:26:52.228Z,83.82
2023-02-02T07:29:19.882Z,83.89
2023-02-02T07:31:47.599Z,84.24
2023-02-02T07:34:15.228Z,84.14
2023-02-02T07:36:42.821Z,84.21
2023-02-02T07:39:12.926Z,84.01
2023-02-02T07:41:40.607Z,83.91
2023-02-02T07:44:08.261Z,84.24
2023-02-02T07:46:35.870Z,84.46
2023-02-02T07:49:04.207Z,83.88
2023-02-02T07:51:31.799Z,83.56
2023-02-02T07:53:59.492Z,83.61
2023-02-02T07:56:28.925Z,83.01
2023-02-02T07:58:57.499Z,83.13
2023-02-02T08:01:26.594Z,82.76
2023-02-02T08:03:55.486Z,82.74
2023-02-02T08:06:24.944Z,82.11
2023-02-02T08:08:53.022Z,82.33
2023-02-02T08:11:22.960Z,82.29
2023-02-02T08:13:53.655Z,82.08
2023-02-02T08:16:22.144Z,82.20
2023-02-02T08:18:50.585Z,81.99
2023-02-02T08:21:19.076Z,81.63
2023-02-02T08:23:46.903Z,81.50
2023-02-02T08:26:18.078Z,81.38
2023-02-02T08:28:48.314Z,80.86
2023-02-02T08:31:19.631Z,80.65
2023-02-02T08:33:47.499Z,80.46
2023-02-02T08:36:17.019Z,80.64
2023-02-02T08:38:44.903Z,78.68
2023-02-02T08:41:14.564Z,78.99
2023-02-02T08:43:43.104Z,79.09
2023-02-02T08:46:12.401Z,78.85
2023-02-02T08:48:41.425Z,78.72
2023-02-02T08:51:11.610Z,78.26
2023-02-02T08:53:39.703Z,78.20
2023-02-02T08:56:10.533Z,77.71
2023-02-02T08:58:38.324Z,77.26
2023-02-02T09:01:07.809Z,77.43
2023-02-02T09:03:36.020Z,77.16
2023-02-02T09:06:10.647Z,77.02
2023-02-02T09:08:38.512Z,77.12
2023-02-02T09:11:08.368Z,76.57
2023-02-02T09:13:36.515Z,76.59
2023-02-02T09:16:06.702Z,76.14
2023-02-02T09:18:34.346Z,76.12
2023-02-02T09:21:02.671Z,75.59
2023-02-02T09:23:32.690Z,75.46
2023-02-02T09:26:10.276Z,75.45
2023-02-02T09:28:39.398Z,75.29
2023-02-02T09:31:07.690Z,74.88
2023-02-02T09:33:35.865Z,74.82
2023-02-02T09:36:08.387Z,75.55
2023-02-02T09:38:37.833Z,74.62
2023-02-02T09:41:26.865Z,74.35
2023-02-02T09:44:05.192Z,74.56
2023-02-02T09:46:46.450Z,74.28
2023-02-02T09:49:18.005Z,74.21
2023-02-02T09:51:50.050Z,73.91
2023-02-02T09:54:22.265Z,73.71
2023-02-02T09:56:57.125Z,73.86
2023-02-02T09:59:28.731Z,73.43
2023-02-02T10:01:59.561Z,72.80
2023-02-02T10:04:33.866Z,73.20
2023-02-02T10:07:09.103Z,73.14
2023-02-02T10:09:44.362Z,72.95
2023-02-02T10:12:26.914Z,73.00
2023-02-02T10:15:00.219Z,72.23
2023-02-02T10:17:39.957Z,72.60
2023-02-02T10:20:19.677Z,73.03
2023-02-02T10:22:48.858Z,73.33
2023-02-02T10:25:18.686Z,73.14
2023-02-02T10:27:57.503Z,73.23
2023-02-02T10:30:35.605Z,73.64
2023-02-02T10:33:06.770Z,73.54
2023-02-02T10:35:43.732Z,73.58
2023-02-02T10:38:24.944Z,73.60
2023-02-02T10:41:03.109Z,73.45
2023-02-02T10:43:49.085Z,73.20
2023-02-02T10:46:23.389Z,73.17
2023-02-02T10:49:01.589Z,72.96
2023-02-02T10:51:30.012Z,73.10
2023-02-02T10:54:01.020Z,73.33
2023-02-02T10:56:35.514Z,72.61
2023-02-02T10:59:07.390Z,73.55
2023-02-02T11:01:34.991Z,73.01
2023-02-02T11:04:20.129Z,72.83
2023-02-02T11:06:50.484Z,72.71
2023-02-02T11:09:22.226Z,73.25
2023-02-02T11:11:55.510Z,72.75
2023-02-02T11:14:33.676Z,73.30
2023-02-02T11:17:05.924Z,72.83
2023-02-02T11:19:34.928Z,72.66
2023-02-02T11:22:04.691Z,72.83
2023-02-02T11:24:45.946Z,72.26
2023-02-02T11:27:19.021Z,72.45
2023-02-02T11:29:49.027Z,72.38
2023-02-02T11:32:26.467Z,72.21
2023-02-02T11:35:20.867Z,72.36
2023-02-02T11:38:02.188Z,72.31
2023-02-02T11:40:33.313Z,72.53
2023-02-02T11:43:06.014Z,72.61
2023-02-02T11:45:36.574Z,72.36
2023-02-02T11:48:08.674Z,72.41
2023-02-02T11:50:36.792Z,72.19
2023-02-02T11:53:04.675Z,72.07
2023-02-02T11:55:33.474Z,71.66
2023-02-02T11:58:27.277Z,71.61
2023-02-02T12:01:01.690Z,71.62
2023-02-02T12:03:33.021Z,71.87
2023-02-02T12:06:02.928Z,71.58
2023-02-02T12:08:31.689Z,71.32
2023-02-02T12:11:02.176Z,71.79
2023-02-02T12:13:47.261Z,71.55
2023-02-02T12:16:34.580Z,71.84
2023-02-02T12:19:20.886Z,71.50
2023-02-02T12:22:00.463Z,71.43
2023-02-02T12:24:32.230Z,71.12
2023-02-02T12:27:14.167Z,71.23
2023-02-02T12:30:03.810Z,71.83
2023-02-02T12:32:55.595Z,71.71
2023-02-02T12:35:38.133Z,72.04
2023-02-02T12:38:16.410Z,72.25
2023-02-02T12:40:57.346Z,71.90
2023-02-02T12:43:34.894Z,72.50
2023-02-02T12:46:16.332Z,71.64
2023-02-02T12:49:01.691Z,70.27
2023-02-02T12:51:44.107Z,70.45
2023-02-02T12:54:32.830Z,70.13
2023-02-02T12:57:14.775Z,69.25
2023-02-02T13:00:02.617Z,69.53
2023-02-02T13:02:37.836Z,69.49
2023-02-02T13:05:33.972Z,70.31
2023-02-02T13:08:09.246Z,71.17
2023-02-02T13:10:40.644Z,71.41
2023-02-02T13:13:13.305Z,72.04
2023-02-02T13:15:45.562Z,71.50
2023-02-02T13:18:19.648Z,71.76
2023-02-02T13:20:52.858Z,71.56
2023-02-02T13:23:27.589Z,71.48
2023-02-02T13:26:01.284Z,71.47
2023-02-02T13:28:38.813Z,71.25
2023-02-02T13:31:17.538Z,71.44
2023-02-02T13:33:50.752Z,71.09
2023-02-02T13:36:25.642Z,70.92
2023-02-02T13:38:56.796Z,71.04
2023-02-02T13:41:25.460Z,71.36
2023-02-02T13:44:01.786Z,71.23
2023-02-02T13:46:36.856Z,71.32
2023-02-02T13:49:13.253Z,71.51
2023-02-02T13:51:51.945Z,71.55
2023-02-02T13:54:53.898Z,71.38
2023-02-02T13:57:38.311Z,71.17
2023-02-02T14:00:15.868Z,71.20
2023-02-02T14:02:47.516Z,71.21
2023-02-02T14:05:26.830Z,70.99
2023-02-02T14:08:03.157Z,71.04
2023-02-02T14:10:35.201Z,70.75
2023-02-02T14:13:30.359Z,70.24
2023-02-02T14:15:59.710Z,70.32
2023-02-02T14:18:55.409Z,69.87
2023-02-02T14:21:56.388Z,70.31
2023-02-02T14:24:53.744Z,69.71
2023-02-02T14:28:02.687Z,69.81
2023-02-02T14:30:34.121Z,70.10
2023-02-02T14:33:25.933Z,70.05
2023-02-02T14:36:01.793Z,70.20
2023-02-02T14:38:59.187Z,70.13
2023-02-02T14:42:00.828Z,70.03
2023-02-02T14:44:30.591Z,70.10
2023-02-02T14:46:59.192Z,70.36
2023-02-02T14:49:35.306Z,69.76
2023-02-02T14:52:05.381Z,69.92
2023-02-02T14:54:38.701Z,69.84
2023-02-02T14:57:23.396Z,69.75
2023-02-02T14:59:52.875Z,69.48
2023-02-02T15:02:25.201Z,69.70
2023-02-02T15:04:53.059Z,70.06
2023-02-02T15:07:55.547Z,69.85
2023-02-02T15:11:00.642Z,69.75
2023-02-02T15:13:37.313Z,70.16
2023-02-02T15:16:10.908Z,70.22
2023-02-02T15:18:44.697Z,70.57
2023-02-02T15:21:16.218Z,70.09
2023-02-02T15:23:46.659Z,70.34
2023-02-02T15:26:20.426Z,70.71
2023-02-02T15:28:54.177Z,70.57
2023-02-02T15:31:30.267Z,70.58
2023-02-02T15:34:01.072Z,70.46
2023-02-02T15:36:31.433Z,70.38
2023-02-02T15:39:02.515Z,70.66
2023-02-02T15:41:34.750Z,70.46
2023-02-02T15:44:19.289Z,70.65
2023-02-02T15:46:48.207Z,70.19
2023-02-02T15:49:33.892Z,70.92
2023-02-02T15:52:11.346Z,70.70
2023-02-02T15:54:39.080Z,70.59
2023-02-02T15:57:24.947Z,70.19
2023-02-02T15:59:53.928Z,70.50
2023-02-02T16:02:27.894Z,70.79
2023-02-02T16:04:55.530Z,70.37
2023-02-02T16:07:29.663Z,70.31
2023-02-02T16:09:57.796Z,70.56
2023-02-02T16:12:26.120Z,70.47
2023-02-02T16:14:56.350Z,70.63
2023-02-02T16:17:28.157Z,70.52
2023-02-02T16:20:01.151Z,70.84
2023-02-02T16:22:30.860Z,70.86
2023-02-02T16:25:02.254Z,70.76
2023-02-02T16:27:32.624Z,71.01
2023-02-02T16:30:08.391Z,71.50
2023-02-02T16:32:38.872Z,71.50
2023-02-02T16:35:26.161Z,72.03
2023-02-02T16:37:53.840Z,71.92
2023-02-02T16:40:27.375Z,72.46
2023-02-02T16:43:05.312Z,72.08
2023-02-02T16:45:36.748Z,72.41
2023-02-02T16:48:28.655Z,72.55
2023-02-02T16:51:27.864Z,73.30
2023-02-02T16:54:02.290Z,73.00
2023-02-02T16:56:33.777Z,72.90
2023-02-02T16:59:06.903Z,73.19
2023-02-02T17:01:40.622Z,73.53
2023-02-02T17:04:19.253Z,73.44
2023-02-02T17:06:52.843Z,73.41
2023-02-02T17:09:35.229Z,73.30
2023-02-02T17:12:09.344Z,73.53
2023-02-02T17:14:52.592Z,73.10
2023-02-02T17:17:21.523Z,73.67
2023-02-02T17:19:49.170Z,73.52
2023-02-02T17:22:18.365Z,74.00
2023-02-02T17:24:48.675Z,74.05
2023-02-02T17:27:23.395Z,74.36
2023-02-02T17:29:51.340Z,74.67
2023-02-02T17:32:18.858Z,74.75
2023-02-02T17:34:47.813Z,75.31
2023-02-02T17:37:15.436Z,74.94
2023-02-02T17:39:43.172Z,75.87
2023-02-02T17:42:21.634Z,76.18
2023-02-02T17:44:49.183Z,76.08
2023-02-02T17:49:44.439Z,75.94
2023-02-02T17:52:13.877Z,75.88
2023-02-02T17:54:41.458Z,76.20
2023-02-02T17:57:09.090Z,76.20
2023-02-02T17:59:36.690Z,76.72
2023-02-02T18:02:04.819Z,76.61
2023-02-02T18:04:32.412Z,76.68
2023-02-02T18:07:00.039Z,76.68
2023-02-02T18:09:33.860Z,76.86
2023-02-02T18:12:01.601Z,77.01
2023-02-02T18:14:29.261Z,76.94
2023-02-02T18:16:57.023Z,76.92
2023-02-02T18:19:24.865Z,77.02
2023-02-02T18:21:52.461Z,77.00
2023-02-02T18:24:20.013Z,76.78
2023-02-02T18:26:49.096Z,76.82
2023-02-02T18:29:16.742Z,76.45
2023-02-02T18:31:44.344Z,76.85
2023-02-02T18:34:12.620Z,76.84
2023-02-02T18:36:40.386Z,77.20
2023-02-02T18:39:09.644Z,77.03
2023-02-02T18:41:37.215Z,77.10
2023-02-02T18:44:06.121Z,77.23
2023-02-02T18:46:34.395Z,77.20
2023-02-02T18:49:02.065Z,77.09
2023-02-02T18:51:31.468Z,77.20
2023-02-02T18:54:00.323Z,77.27
2023-02-02T18:56:28.847Z,77.67
2023-02-02T18:58:56.968Z,77.53
2023-02-02T19:01:26.629Z,77.28
2023-02-02T19:03:57.292Z,77.69
2023-02-02T19:06:42.832Z,77.91
2023-02-02T19:09:10.584Z,77.92
2023-02-02T19:11:40.075Z,77.88
2023-02-02T19:14:14.832Z,77.42
2023-02-02T19:16:44.893Z,77.81
2023-02-02T19:19:23.120Z,77.74
2023-02-02T19:21:54.326Z,77.84
2023-02-02T19:24:22.058Z,77.47
2023-02-02T19:26:51.430Z,77.09
2023-02-02T19:29:22.565Z,77.42
2023-02-02T19:32:00.652Z,77.46
2023-02-02T19:34:28.345Z,77.46
2023-02-02T19:36:56.097Z,77.41
2023-02-02T19:39:30.860Z,77.25
2023-02-02T19:42:01.197Z,77.36
2023-02-02T19:44:33.941Z,77.33
2023-02-02T19:47:03.834Z,77.61
2023-02-02T19:49:34.361Z,77.62
2023-02-02T19:52:03.825Z,77.51
2023-02-02T19:54:34.745Z,77.64
2023-02-02T19:57:07.397Z,77.77
2023-02-02T19:59:36.295Z,77.37
2023-02-02T20:02:34.458Z,77.62
2023-02-02T20:05:08.199Z,77.78
2023-02-02T20:07:35.879Z,77.52
2023-02-02T20:10:18.631Z,77.26
2023-02-02T20:12:46.191Z,77.77
2023-02-02T20:15:25.696Z,77.67
2023-02-02T20:17:58.236Z,77.49
2023-02-02T20:20:28.297Z,77.08
2023-02-02T20:22:57.561Z,77.16
2023-02-02T20:25:25.130Z,77.29
2023-02-02T20:27:54.678Z,77.44
2023-02-02T20:30:26.523Z,77.25
2023-02-02T20:32:57.988Z,77.58
2023-02-02T20:35:34.266Z,77.61
2023-02-02T20:38:02.363Z,77.66
2023-02-02T20:40:31.449Z,77.51
2023-02-02T20:42:59.170Z,77.68
2023-02-02T20:45:28.077Z,77.85
2023-02-02T20:47:57.034Z,78.03
2023-02-02T20:50:25.272Z,78.04
2023-02-02T20:52:54.002Z,78.03
2023-02-02T20:55:21.721Z,78.50
2023-02-02T20:57:49.291Z,78.18
2023-02-02T21:00:21.336Z,78.54
2023-02-02T21:02:49.106Z,78.52
2023-02-02T21:05:18.185Z,78.85
2023-02-02T21:07:45.808Z,78.49
2023-02-02T21:10:13.442Z,78.85
2023-02-02T21:12:41.006Z,78.89
2023-02-02T21:15:09.650Z,78.89
2023-02-02T21:17:37.234Z,78.96
2023-02-02T21:20:05.160Z,78.93
2023-02-02T21:22:35.795Z,79.02
2023-02-02T21:25:03.397Z,78.83
2023-02-02T21:27:31.152Z,79.16
2023-02-02T21:29:59.014Z,78.86
2023-02-02T21:32:26.634Z,78.91
2023-02-02T21:34:54.191Z,79.29
2023-02-02T21:37:21.802Z,79.86
2023-02-02T21:39:51.701Z,79.74
2023-02-02T21:42:22.210Z,79.50
2023-02-02T21:44:54.177Z,79.87
2023-02-02T21:47:29.714Z,79.50
2023-02-02T21:50:00.182Z,79.43
2023-02-02T21:52:33.550Z,79.88
2023-02-02T21:55:29.125Z,80.13
2023-02-02T21:57:59.155Z,79.97
2023-02-02T22:00:30.824Z,80.43
2023-02-02T22:02:59.725Z,80.06
2023-02-02T22:05:34.287Z,79.70
2023-02-02T22:08:08.366Z,80.30
2023-02-02T22:10:39.678Z,80.35
2023-02-02T22:13:17.338Z,80.22
2023-02-02T22:15:47.319Z,80.68
2023-02-02T22:18:18.022Z,80.41
2023-02-02T22:20:47.355Z,81.17
2023-02-02T22:23:17.143Z,80.78
2023-02-02T22:25:47.751Z,80.96
2023-02-02T22:28:20.870Z,81.30
2023-02-02T22:30:48.965Z,81.43
2023-02-02T22:33:16.739Z,81.26
2023-02-02T22:35:44.677Z,81.26
2023-02-02T22:38:17.229Z,81.33
2023-02-02T22:40:46.584Z,81.43
2023-02-02T22:43:16.183Z,81.27
2023-02-02T22:45:44.153Z,81.76
2023-02-02T22:48:12.193Z,81.73
2023-02-02T22:50:39.851Z,81.62
2023-02-02T22:53:07.548Z,82.07
2023-02-02T22:55:36.052Z,81.40
2023-02-02T22:58:05.016Z,81.94
2023-02-02T23:00:33.634Z,81.30
2023-02-02T23:03:01.370Z,81.94
2023-02-02T23:05:29.255Z,81.81
2023-02-02T23:07:56.874Z,81.69
2023-02-02T23:10:27.492Z,81.94
2023-02-02T23:12:58.489Z,81.89
2023-02-02T23:15:27.957Z,81.87
2023-02-02T23:17:55.962Z,81.51
2023-02-02T23:20:23.586Z,81.96
2023-02-02T23:22:51.210Z,81.88
2023-02-02T23:25:19.268Z,81.81
2023-02-02T23:27:47.004Z,82.34
2023-02-02T23:30:15.807Z,82.12
2023-02-02T23:32:44.772Z,81.64
2023-02-02T23:35:12.399Z,81.92
2023-02-02T23:37:39.959Z,81.50
2023-02-02T23:40:08.824Z,81.84
2023-02-02T23:42:37.509Z,81.61
2023-02-02T23:45:05.751Z,81.45
2023-02-02T23:47:33.910Z,81.60
2023-02-02T23:50:06.786Z,81.93
2023-02-02T23:52:35.618Z,82.05
2023-02-02T23:55:03.945Z,81.92
2023-02-02T23:57:33.557Z,81.74
